Terminal Aerodrome Forecast
Issued by NWS Central Illinois

Home | Current Version | Previous Version | Text Only | Print | Product List | Glossary On
Versions: 1 2 3 4 5 6 7 8 9 10 11 12 13 14 15 16 17 18 19 20 21 22 23 24 25 26 27
162
FTUS43 KILX 251744 AAB
TAFPIA
TAF AMD
KPIA 251744Z 2518/2618 30016G24KT P6SM VCSH BKN040
     FM252000 29015G23KT P6SM VCSH SCT130
     FM260000 29008KT P6SM SCT200
     FM260400 25004KT P6SM SCT200
     FM260800 19004KT P6SM SCT120
     FM261400 19011G20KT P6SM BKN110=

USA.gov is the U.S. government's official web portal to all federal, state and local government web resources and services.